Quincy, Illinois
Current Conditions -  °F | °C
As of 1:23 PM on Saturday 25 Oct 2014 (Local Time) from KUIN Reporting Station
Haze Haze  
Wind Chill: 74°   Ceiling: Unl
Heat Index: 74°   Visibility: 3mi
Dew Point: 52°   Wind: 6mph
Humidity: 46%   Direction: 340°NNW
Pressure: 30.04"   Gusts: NA
Location:  39.94°N, 91.39°W
Report Text: KUIN 251823Z AUTO 34005KT 3SM HZ CLR 23/11 A3004 RMK AO2 T02330111
Loading
Personal Weather Stations






























Interactive Weather Map
Tropical Storm Tracking
New forecast layout! Learn more

10-Day Weather Forecast

Advertisements
Track Severe Weather on mobile